createdAt,value
2019-04-16T00:02:09.454Z,97315.42
2019-04-16T00:04:39.722Z,97318.10
2019-04-16T00:07:26.371Z,97320.55
2019-04-16T00:09:56.586Z,97319.80
2019-04-16T00:12:26.860Z,97322.83
2019-04-16T00:14:57.186Z,97322.94
2019-04-16T00:17:25.962Z,97328.17
2019-04-16T00:19:54.670Z,97324.06
2019-04-16T00:22:25.003Z,97324.19
2019-04-16T00:24:55.081Z,97324.89
2019-04-16T00:27:28.253Z,97328.16
2019-04-16T00:29:54.663Z,97323.98
2019-04-16T00:32:26.170Z,97322.59
2019-04-16T00:34:55.356Z,97318.74
2019-04-16T00:37:24.188Z,97311.00
2019-04-16T00:39:55.548Z,97318.00
2019-04-16T00:42:26.516Z,97316.41
2019-04-16T00:44:55.553Z,97319.77
2019-04-16T00:47:24.462Z,97322.02
2019-04-16T00:49:57.557Z,97321.62
2019-04-16T00:52:25.583Z,97320.58
2019-04-16T00:54:54.619Z,97323.89
2019-04-16T00:57:23.720Z,97323.02
2019-04-16T00:59:56.304Z,97322.89
2019-04-16T01:02:22.807Z,97318.27
2019-04-16T01:04:51.501Z,97318.88
2019-04-16T01:07:20.067Z,97315.06
2019-04-16T01:09:48.630Z,97322.70
2019-04-16T01:12:17.313Z,97322.30
2019-04-16T01:14:45.954Z,97325.23
2019-04-16T01:17:14.799Z,97327.14
2019-04-16T01:19:43.486Z,97321.58
2019-04-16T01:22:17.281Z,97328.36
2019-04-16T01:24:46.103Z,97331.70
2019-04-16T01:27:15.763Z,97328.58
2019-04-16T01:29:44.392Z,97329.14
2019-04-16T01:32:23.458Z,97323.19
2019-04-16T01:35:05.581Z,97327.63
2019-04-16T01:37:56.534Z,97323.30
2019-04-16T01:40:29.423Z,97319.81
2019-04-16T01:42:58.072Z,97324.46
2019-04-16T01:45:29.605Z,97324.39
2019-04-16T01:47:57.356Z,97329.42
2019-04-16T01:50:32.227Z,97321.59
2019-04-16T01:53:01.301Z,97320.67
2019-04-16T01:55:29.955Z,97314.52
2019-04-16T01:57:59.695Z,97318.87
2019-04-16T02:00:28.972Z,97318.22
2019-04-16T02:02:57.657Z,97323.88
2019-04-16T02:05:26.305Z,97320.98
2019-04-16T02:07:56.320Z,97320.07
2019-04-16T02:10:25.588Z,97324.25
2019-04-16T02:12:54.413Z,97327.06
2019-04-16T02:15:23.029Z,97326.23
2019-04-16T02:17:51.847Z,97336.98
2019-04-16T02:20:20.462Z,97332.85
2019-04-16T02:22:49.103Z,97339.58
2019-04-16T02:25:20.190Z,97336.25
2019-04-16T02:27:48.123Z,97327.90
2019-04-16T02:30:16.760Z,97326.19
2019-04-16T02:32:45.681Z,97331.32
2019-04-16T02:35:14.467Z,97328.53
2019-04-16T02:37:43.043Z,97321.06
2019-04-16T02:40:18.283Z,97331.80
2019-04-16T02:42:44.757Z,97337.62
2019-04-16T02:45:13.656Z,97341.23
2019-04-16T02:47:42.536Z,97337.62
2019-04-16T02:50:12.994Z,97341.48
2019-04-16T02:52:50.224Z,97329.52
2019-04-16T02:55:21.416Z,97335.95
2019-04-16T02:58:09.916Z,97325.82
2019-04-16T03:00:58.979Z,97324.45
2019-04-16T03:03:38.156Z,97322.47
2019-04-16T03:06:06.891Z,97330.04
2019-04-16T03:08:36.017Z,97327.75
2019-04-16T03:11:05.991Z,97333.34
2019-04-16T03:13:35.943Z,97333.25
2019-04-16T03:16:07.530Z,97326.89
2019-04-16T03:18:46.887Z,97335.54
2019-04-16T03:21:15.575Z,97330.95
2019-04-16T03:23:44.082Z,97336.84
2019-04-16T03:26:16.369Z,97336.48
2019-04-16T03:28:43.463Z,97343.89
2019-04-16T03:31:20.254Z,97341.68
2019-04-16T03:33:48.131Z,97343.73
2019-04-16T03:36:12.896Z,97341.95
2019-04-16T03:38:42.114Z,97343.89
2019-04-16T03:41:11.074Z,97343.73
2019-04-16T03:43:39.713Z,97340.91
2019-04-16T03:46:12.324Z,97349.55
2019-04-16T03:48:38.824Z,97357.44
2019-04-16T03:51:12.688Z,97360.73
2019-04-16T03:53:41.184Z,97361.22
2019-04-16T03:56:09.805Z,97370.39
2019-04-16T03:58:39.387Z,97365.52
2019-04-16T04:01:08.361Z,97368.16
2019-04-16T04:03:36.876Z,97368.67
2019-04-16T04:06:06.902Z,97378.32
2019-04-16T04:08:35.895Z,97381.51
2019-04-16T04:11:09.202Z,97380.16
2019-04-16T04:13:35.259Z,97385.98
2019-04-16T04:16:04.500Z,97385.17
2019-04-16T04:18:33.115Z,97384.07
2019-04-16T04:21:01.668Z,97393.27
2019-04-16T04:23:30.521Z,97393.27
2019-04-16T04:25:59.235Z,97391.66
2019-04-16T04:28:27.936Z,97392.66
2019-04-16T04:30:57.696Z,97397.78
2019-04-16T04:33:40.923Z,97405.39
2019-04-16T04:36:09.159Z,97400.47
2019-04-16T04:38:38.555Z,97403.28
2019-04-16T04:41:08.630Z,97400.40
2019-04-16T04:43:39.059Z,97399.55
2019-04-16T04:46:12.782Z,97401.94
2019-04-16T04:48:38.604Z,97400.17
2019-04-16T04:51:08.713Z,97407.70
2019-04-16T04:53:38.123Z,97409.53
2019-04-16T04:56:06.920Z,97407.46
2019-04-16T04:58:35.581Z,97407.91
2019-04-16T05:01:04.416Z,97413.34
2019-04-16T05:03:37.377Z,97413.02
2019-04-16T05:06:27.788Z,97412.95
2019-04-16T05:08:57.611Z,97417.36
2019-04-16T05:11:26.541Z,97418.84
2019-04-16T05:13:56.401Z,97419.59
2019-04-16T05:16:25.918Z,97411.66
2019-04-16T05:18:54.642Z,97417.13
2019-04-16T05:21:28.296Z,97416.77
2019-04-16T05:23:58.076Z,97419.58
2019-04-16T05:26:28.474Z,97420.71
2019-04-16T05:28:58.799Z,97425.06
2019-04-16T05:31:27.535Z,97424.74
2019-04-16T05:34:00.623Z,97433.80
2019-04-16T05:36:26.743Z,97430.25
2019-04-16T05:38:56.356Z,97434.40
2019-04-16T05:41:31.350Z,97432.53
2019-04-16T05:44:01.752Z,97434.77
2019-04-16T05:46:30.708Z,97434.39
2019-04-16T05:48:59.366Z,97430.06
2019-04-16T05:51:31.277Z,97433.34
2019-04-16T05:54:00.295Z,97438.73
2019-04-16T05:56:30.619Z,97437.77
2019-04-16T05:58:59.683Z,97437.00
2019-04-16T06:01:49.380Z,97430.97
2019-04-16T06:04:24.236Z,97427.83
2019-04-16T06:06:50.299Z,97430.69
2019-04-16T06:09:19.014Z,97431.15
2019-04-16T06:11:47.657Z,97429.94
2019-04-16T06:14:21.015Z,97423.20
2019-04-16T06:16:57.656Z,97430.73
2019-04-16T06:19:27.953Z,97425.94
2019-04-16T06:22:14.680Z,97425.11
2019-04-16T06:25:00.218Z,97425.58
2019-04-16T06:27:33.243Z,97420.33
2019-04-16T06:30:03.945Z,97430.13
2019-04-16T06:32:49.695Z,97434.80
2019-04-16T06:35:42.307Z,97428.08
2019-04-16T06:38:06.657Z,97430.14
2019-04-16T06:40:42.714Z,97427.37
2019-04-16T06:43:18.870Z,97423.19
2019-04-16T06:45:57.916Z,97415.55
2019-04-16T06:48:31.153Z,97421.28
2019-04-16T06:51:20.060Z,97430.13
2019-04-16T06:53:59.282Z,97423.72
2019-04-16T06:56:29.607Z,97416.04
2019-04-16T06:59:17.199Z,97425.43
2019-04-16T07:02:01.932Z,97426.23
2019-04-16T07:04:47.270Z,97421.70
2019-04-16T07:07:40.008Z,97427.06
2019-04-16T07:10:08.983Z,97421.64
2019-04-16T07:12:38.488Z,97413.88
2019-04-16T07:15:09.075Z,97409.52
2019-04-16T07:17:40.465Z,97414.98
2019-04-16T07:20:13.022Z,97418.04
2019-04-16T07:22:38.639Z,97403.29
2019-04-16T07:25:07.773Z,97407.64
2019-04-16T07:27:38.882Z,97400.37
2019-04-16T07:30:09.645Z,97402.00
2019-04-16T07:32:43.563Z,97409.14
2019-04-16T07:35:30.021Z,97410.11
2019-04-16T07:38:05.414Z,97408.61
2019-04-16T07:40:41.067Z,97405.02
2019-04-16T07:43:15.924Z,97408.78
2019-04-16T07:45:46.445Z,97407.88
2019-04-16T07:48:25.757Z,97400.53
2019-04-16T07:51:01.723Z,97396.88
2019-04-16T07:53:37.017Z,97397.93
2019-04-16T07:56:07.463Z,97392.75
2019-04-16T07:58:36.089Z,97392.05
2019-04-16T08:01:05.332Z,97392.20
2019-04-16T08:03:35.473Z,97388.00
2019-04-16T08:06:04.183Z,97381.59
2019-04-16T08:08:32.854Z,97379.80
2019-04-16T08:11:01.546Z,97383.57
2019-04-16T08:13:33.628Z,97385.09
2019-04-16T08:16:02.514Z,97377.56
2019-04-16T08:18:31.176Z,97370.87
2019-04-16T08:21:05.946Z,97381.16
2019-04-16T08:23:31.808Z,97377.44
2019-04-16T08:26:04.340Z,97372.53
2019-04-16T08:28:32.763Z,97369.86
2019-04-16T08:31:02.979Z,97355.77
2019-04-16T08:33:31.644Z,97355.87
2019-04-16T08:36:00.367Z,97352.11
2019-04-16T08:38:34.103Z,97350.44
2019-04-16T08:40:59.476Z,97347.31
2019-04-16T08:43:29.660Z,97349.86
2019-04-16T08:45:58.929Z,97348.58
2019-04-16T08:48:27.521Z,97350.40
2019-04-16T08:50:58.482Z,97347.63
2019-04-16T08:53:26.638Z,97341.31
2019-04-16T08:55:55.220Z,97334.41
2019-04-16T08:58:23.904Z,97339.61
2019-04-16T09:00:52.867Z,97335.06
2019-04-16T09:03:21.608Z,97328.82
2019-04-16T09:05:50.573Z,97323.02
2019-04-16T09:08:39.067Z,97327.40
2019-04-16T09:11:07.733Z,97329.80
2019-04-16T09:13:44.465Z,97325.21
2019-04-16T09:16:14.571Z,97327.34
2019-04-16T09:19:00.141Z,97330.91
2019-04-16T09:21:29.021Z,97323.66
2019-04-16T09:24:15.690Z,97317.14
2019-04-16T09:26:48.998Z,97305.98
2019-04-16T09:29:31.217Z,97304.12
2019-04-16T09:32:01.632Z,97299.80
2019-04-16T09:34:31.838Z,97294.00
2019-04-16T09:37:10.796Z,97291.59
2019-04-16T09:39:41.085Z,97287.56
2019-04-16T09:42:09.801Z,97285.80
2019-04-16T09:44:38.692Z,97290.47
2019-04-16T09:47:07.451Z,97278.27
2019-04-16T09:49:37.495Z,97286.42
2019-04-16T09:52:08.049Z,97278.20
2019-04-16T09:54:36.768Z,97281.96
2019-04-16T09:57:05.423Z,97270.78
2019-04-16T09:59:47.415Z,97261.29
2019-04-16T10:02:16.887Z,97262.95
2019-04-16T10:04:45.495Z,97262.33
2019-04-16T10:07:14.507Z,97253.75
2019-04-16T10:09:43.111Z,97250.84
2019-04-16T10:12:11.767Z,97254.41
2019-04-16T10:14:42.429Z,97247.55
2019-04-16T10:17:11.137Z,97247.42
2019-04-16T10:19:43.053Z,97233.80
2019-04-16T10:22:10.823Z,97240.61
2019-04-16T10:24:56.913Z,97240.61
2019-04-16T10:27:31.284Z,97237.67
2019-04-16T10:29:57.651Z,97241.05
2019-04-16T10:32:27.935Z,97232.69
2019-04-16T10:34:57.794Z,97225.34
2019-04-16T10:37:26.433Z,97221.31
2019-04-16T10:39:59.716Z,97216.10
2019-04-16T10:42:32.782Z,97215.92
2019-04-16T10:45:20.777Z,97207.90
2019-04-16T10:47:51.125Z,97205.71
2019-04-16T10:50:27.198Z,97204.63
2019-04-16T10:53:15.835Z,97193.48
2019-04-16T10:55:51.878Z,97192.39
2019-04-16T10:58:22.224Z,97196.93
2019-04-16T11:01:01.485Z,97189.52
2019-04-16T11:03:48.309Z,97185.72
2019-04-16T11:06:30.653Z,97186.51
2019-04-16T11:08:59.380Z,97187.73
2019-04-16T11:11:28.030Z,97187.73
2019-04-16T11:14:00.548Z,97190.34
2019-04-16T11:16:31.581Z,97190.34
2019-04-16T11:19:00.510Z,97192.67
2019-04-16T11:21:29.296Z,97186.22
2019-04-16T11:23:58.045Z,97190.84
2019-04-16T11:26:29.796Z,97198.91
2019-04-16T11:28:58.533Z,97201.49
2019-04-16T11:31:27.442Z,97213.53
2019-04-16T11:33:56.150Z,97218.41
2019-04-16T11:36:24.806Z,97216.85
2019-04-16T11:38:53.477Z,97208.52
2019-04-16T11:41:22.654Z,97218.57
2019-04-16T11:43:51.294Z,97221.25
2019-04-16T11:46:20.677Z,97201.43
2019-04-16T11:48:50.309Z,97218.42
2019-04-16T11:51:19.214Z,97223.59
2019-04-16T11:53:47.925Z,97224.66
2019-04-16T11:56:16.611Z,97217.55
2019-04-16T11:58:46.568Z,97227.39
2019-04-16T12:01:32.428Z,97230.36
2019-04-16T12:04:03.423Z,97228.59
2019-04-16T12:06:39.888Z,97222.01
2019-04-16T12:09:27.688Z,97223.16
2019-04-16T12:12:04.188Z,97220.70
2019-04-16T12:14:43.797Z,97214.59
2019-04-16T12:17:26.326Z,97209.20
2019-04-16T12:23:18.678Z,97195.81
2019-04-16T12:25:49.017Z,97194.87
2019-04-16T12:28:34.460Z,97196.63
2019-04-16T12:31:21.187Z,97195.70
2019-04-16T12:33:54.829Z,97192.40
2019-04-16T12:36:25.180Z,97187.72
2019-04-16T12:39:01.459Z,97185.52
2019-04-16T12:41:31.815Z,97178.63
2019-04-16T12:44:10.972Z,97168.19
2019-04-16T12:46:50.047Z,97170.02
2019-04-16T12:49:36.924Z,97164.76
2019-04-16T12:52:07.208Z,97164.34
2019-04-16T12:54:59.326Z,97157.36
2019-04-16T12:57:26.983Z,97156.09
2019-04-16T12:59:57.288Z,97154.50
2019-04-16T13:02:44.830Z,97148.52
2019-04-16T13:05:21.061Z,97146.66
2019-04-16T13:08:06.791Z,97142.86
2019-04-16T13:10:52.352Z,97135.48
2019-04-16T13:13:28.575Z,97131.23
2019-04-16T13:15:58.854Z,97130.06
2019-04-16T13:18:29.153Z,97123.47
2019-04-16T13:21:03.898Z,97119.92
2019-04-16T13:23:37.337Z,97114.67
2019-04-16T13:26:25.764Z,97113.98
2019-04-16T13:28:55.496Z,97110.21
2019-04-16T13:31:25.035Z,97108.23
2019-04-16T13:33:53.814Z,97108.20
2019-04-16T13:36:26.728Z,97104.41
2019-04-16T13:39:09.840Z,97101.56
2019-04-16T13:41:39.758Z,97102.80
2019-04-16T13:44:25.275Z,97101.00
2019-04-16T13:46:54.013Z,97101.75
2019-04-16T13:49:33.252Z,97092.38
2019-04-16T13:52:01.996Z,97090.33
2019-04-16T13:54:38.298Z,97099.41
2019-04-16T13:57:14.448Z,97099.41
2019-04-16T14:00:04.919Z,97125.20
2019-04-16T14:02:40.861Z,97122.89
2019-04-16T14:05:11.264Z,97119.52
2019-04-16T14:07:40.161Z,97113.00
2019-04-16T14:10:08.791Z,97133.20
2019-04-16T14:12:42.258Z,97130.34
2019-04-16T14:15:10.109Z,97119.69
2019-04-16T14:17:51.715Z,97129.84
2019-04-16T14:20:12.826Z,97118.64
2019-04-16T14:22:40.507Z,97098.00
2019-04-16T14:25:09.558Z,97081.78
2019-04-16T14:27:38.178Z,97077.91
2019-04-16T14:30:10.327Z,97074.30
2019-04-16T14:32:39.921Z,97086.72
2019-04-16T14:35:10.399Z,97082.88
2019-04-16T14:37:39.044Z,97078.59
2019-04-16T14:40:12.683Z,97082.42
2019-04-16T14:42:41.429Z,97083.57
2019-04-16T14:45:12.308Z,97080.08
2019-04-16T14:47:40.890Z,97082.33
2019-04-16T14:50:13.310Z,97078.88
2019-04-16T14:52:41.578Z,97079.59
2019-04-16T14:55:28.202Z,97080.35
2019-04-16T14:58:03.952Z,97071.26
2019-04-16T15:00:49.952Z,97064.96
2019-04-16T15:03:20.319Z,97066.72
2019-04-16T15:06:03.389Z,97070.70
2019-04-16T15:08:48.674Z,97064.86
2019-04-16T15:11:25.718Z,97062.52
2019-04-16T15:13:58.235Z,97054.16
2019-04-16T15:16:38.643Z,97062.02
2019-04-16T15:19:15.047Z,97061.70
2019-04-16T15:22:02.041Z,97062.84
2019-04-16T15:24:47.417Z,97060.67
2019-04-16T15:27:17.778Z,97065.69
2019-04-16T15:29:48.051Z,97070.53
2019-04-16T15:32:30.165Z,97077.95
2019-04-16T15:34:59.270Z,97078.69
2019-04-16T15:37:29.551Z,97075.84
2019-04-16T15:40:01.369Z,97092.81
2019-04-16T15:42:48.319Z,97091.92
2019-04-16T15:45:25.519Z,97093.38
2019-04-16T15:48:00.817Z,97088.78
2019-04-16T15:50:35.353Z,97086.84
2019-04-16T15:53:04.527Z,97099.95
2019-04-16T15:55:46.776Z,97097.14
2019-04-16T15:58:17.099Z,97098.94
2019-04-16T16:00:47.385Z,97094.45
2019-04-16T16:03:23.730Z,97098.07
2019-04-16T16:06:10.156Z,97096.51
2019-04-16T16:08:49.711Z,97087.80
2019-04-16T16:11:22.724Z,97089.69
2019-04-16T16:13:51.308Z,97082.11
2019-04-16T16:16:20.035Z,97080.06
2019-04-16T16:18:48.740Z,97086.04
2019-04-16T16:21:17.378Z,97094.27
2019-04-16T16:23:46.054Z,97087.98
2019-04-16T16:26:14.701Z,97089.41
2019-04-16T16:28:43.337Z,97092.42
2019-04-16T16:31:12.905Z,97088.28
2019-04-16T16:33:41.547Z,97094.17
2019-04-16T16:36:10.204Z,97098.41
2019-04-16T16:38:40.541Z,97097.64
2019-04-16T16:41:09.355Z,97096.39
2019-04-16T16:43:38.071Z,97096.14
2019-04-16T16:46:20.292Z,97101.03
2019-04-16T16:48:50.237Z,97100.06
2019-04-16T16:51:22.907Z,97110.33
2019-04-16T16:53:51.933Z,97111.47
2019-04-16T16:56:24.247Z,97112.70
2019-04-16T16:58:54.512Z,97110.63
2019-04-16T17:01:33.426Z,97114.87
2019-04-16T17:04:05.489Z,97117.88
2019-04-16T17:06:34.224Z,97109.33
2019-04-16T17:09:02.981Z,97110.77
2019-04-16T17:11:31.770Z,97118.85
2019-04-16T17:14:02.255Z,97121.48
2019-04-16T17:16:30.848Z,97125.39
2019-04-16T17:18:59.534Z,97122.48
2019-04-16T17:21:28.236Z,97126.73
2019-04-16T17:23:56.909Z,97135.05
2019-04-16T17:26:25.645Z,97135.70
2019-04-16T17:28:54.352Z,97138.91
2019-04-16T17:31:23.265Z,97141.78
2019-04-16T17:33:51.932Z,97144.34
2019-04-16T17:36:20.490Z,97152.91
2019-04-16T17:38:49.149Z,97155.09
2019-04-16T17:41:19.446Z,97158.52
2019-04-16T17:44:08.050Z,97160.85
2019-04-16T17:46:41.394Z,97164.31
2019-04-16T17:49:20.679Z,97165.14
2019-04-16T17:52:05.298Z,97174.70
2019-04-16T17:54:35.522Z,97173.97
2019-04-16T17:57:11.861Z,97187.81
2019-04-16T17:59:57.129Z,97188.06
2019-04-16T18:02:33.422Z,97193.61
2019-04-16T18:05:23.699Z,97200.69
2019-04-16T18:08:05.817Z,97206.29
2019-04-16T18:10:49.042Z,97211.03
2019-04-16T18:13:19.324Z,97215.70
2019-04-16T18:15:52.350Z,97210.69
2019-04-16T18:18:25.676Z,97218.47
2019-04-16T18:21:05.327Z,97216.48
2019-04-16T18:23:44.798Z,97225.60
2019-04-16T18:26:30.090Z,97228.89
2019-04-16T18:29:01.588Z,97221.85
2019-04-16T18:31:35.288Z,97229.72
2019-04-16T18:34:09.004Z,97226.78
2019-04-16T18:36:39.987Z,97230.36
2019-04-16T18:39:19.469Z,97234.03
2019-04-16T18:41:49.912Z,97238.58
2019-04-16T18:44:36.511Z,97238.84
2019-04-16T18:47:18.854Z,97242.75
2019-04-16T18:49:49.088Z,97241.37
2019-04-16T18:52:17.734Z,97235.43
2019-04-16T18:54:49.403Z,97232.56
2019-04-16T18:57:17.063Z,97228.42
2019-04-16T18:59:46.013Z,97235.13
2019-04-16T19:02:15.654Z,97237.06
2019-04-16T19:04:44.310Z,97239.29
2019-04-16T19:07:12.958Z,97240.45
2019-04-16T19:09:41.718Z,97248.57
2019-04-16T19:12:10.855Z,97244.39
2019-04-16T19:14:39.552Z,97247.84
2019-04-16T19:17:08.318Z,97248.29
2019-04-16T19:19:37.033Z,97254.83
2019-04-16T19:22:05.979Z,97255.47
2019-04-16T19:24:35.165Z,97255.82
2019-04-16T19:27:03.808Z,97253.56
2019-04-16T19:29:32.568Z,97257.19
2019-04-16T19:32:01.284Z,97252.58
2019-04-16T19:34:29.899Z,97262.72
2019-04-16T19:36:59.531Z,97262.72
2019-04-16T19:39:28.956Z,97258.73
2019-04-16T19:41:58.248Z,97260.28
2019-04-16T19:44:26.926Z,97257.78
2019-04-16T19:46:55.513Z,97262.14
2019-04-16T19:49:24.230Z,97271.01
2019-04-16T19:51:55.394Z,97270.73
2019-04-16T19:54:23.950Z,97275.03
2019-04-16T19:56:53.091Z,97280.09
2019-04-16T19:59:22.034Z,97276.81
2019-04-16T20:01:55.784Z,97270.31
2019-04-16T20:04:24.259Z,97280.70
2019-04-16T20:06:59.984Z,97280.36
2019-04-16T20:09:24.880Z,97274.28
2019-04-16T20:12:03.346Z,97278.34
2019-04-16T20:14:35.328Z,97283.51
2019-04-16T20:17:02.268Z,97287.84
2019-04-16T20:19:30.907Z,97283.94
2019-04-16T20:21:59.599Z,97281.86
2019-04-16T20:24:28.285Z,97290.14
2019-04-16T20:26:57.032Z,97292.52
2019-04-16T20:29:25.950Z,97291.84
2019-04-16T20:31:54.611Z,97290.85
2019-04-16T20:34:23.306Z,97290.20
2019-04-16T20:36:52.144Z,97290.73
2019-04-16T20:39:22.354Z,97285.04
2019-04-16T20:41:54.024Z,97284.16
2019-04-16T20:44:22.993Z,97292.66
2019-04-16T20:46:51.626Z,97288.95
2019-04-16T20:49:20.236Z,97287.20
2019-04-16T20:51:49.034Z,97288.80
2019-04-16T20:54:17.679Z,97291.47
2019-04-16T20:56:46.401Z,97290.30
2019-04-16T20:59:14.872Z,97288.66
2019-04-16T21:01:43.588Z,97283.30
2019-04-16T21:04:12.265Z,97294.11
2019-04-16T21:06:41.991Z,97289.57
2019-04-16T21:09:10.866Z,97291.59
2019-04-16T21:11:41.002Z,97293.38
2019-04-16T21:14:09.912Z,97291.53
2019-04-16T21:16:38.476Z,97288.94
2019-04-16T21:19:21.680Z,97288.13
2019-04-16T21:21:38.235Z,97290.95
2019-04-16T21:24:08.500Z,97283.83
2019-04-16T21:26:37.562Z,97289.69
2019-04-16T21:29:07.845Z,97294.13
2019-04-16T21:31:44.132Z,97295.22
2019-04-16T21:34:17.112Z,97297.66
2019-04-16T21:36:47.322Z,97303.08
2019-04-16T21:39:18.347Z,97295.34
2019-04-16T21:41:47.004Z,97295.59
2019-04-16T21:44:15.653Z,97294.60
2019-04-16T21:46:44.355Z,97295.42
2019-04-16T21:49:13.081Z,97297.02
2019-04-16T21:51:58.694Z,97295.13
2019-04-16T21:54:30.575Z,97294.11
2019-04-16T21:56:58.009Z,97292.38
2019-04-16T21:59:26.691Z,97289.88
2019-04-16T22:01:55.500Z,97297.12
2019-04-16T22:04:24.163Z,97301.25
2019-04-16T22:06:53.422Z,97303.16
2019-04-16T22:09:22.109Z,97307.59
2019-04-16T22:11:50.956Z,97308.38
2019-04-16T22:14:22.368Z,97308.86
2019-04-16T22:16:50.000Z,97306.13
2019-04-16T22:19:18.661Z,97312.09
2019-04-16T22:21:47.155Z,97319.06
2019-04-16T22:24:15.851Z,97314.95
2019-04-16T22:26:44.513Z,97311.84
2019-04-16T22:29:15.801Z,97308.88
2019-04-16T22:31:43.533Z,97317.42
2019-04-16T22:34:12.181Z,97322.30
2019-04-16T22:36:40.677Z,97320.58
2019-04-16T22:39:11.042Z,97316.41
2019-04-16T22:41:41.432Z,97321.19
2019-04-16T22:44:27.770Z,97318.90
2019-04-16T22:47:01.021Z,97319.70
2019-04-16T22:49:30.246Z,97320.23
2019-04-16T22:51:59.208Z,97319.47
2019-04-16T22:54:27.735Z,97321.31
2019-04-16T22:57:10.299Z,97318.70
2019-04-16T22:59:40.030Z,97316.96
2019-04-16T23:02:10.392Z,97318.72
2019-04-16T23:04:39.014Z,97322.08
2019-04-16T23:07:08.773Z,97322.88
2019-04-16T23:09:37.923Z,97320.89
2019-04-16T23:12:06.919Z,97320.63
2019-04-16T23:14:35.826Z,97317.95
2019-04-16T23:17:04.423Z,97317.33
2019-04-16T23:19:33.032Z,97317.44
2019-04-16T23:22:01.674Z,97323.23
2019-04-16T23:24:30.319Z,97322.59
2019-04-16T23:27:04.524Z,97315.94
2019-04-16T23:29:29.350Z,97319.28
2019-04-16T23:31:58.106Z,97324.38
2019-04-16T23:34:26.753Z,97322.70
2019-04-16T23:36:55.393Z,97325.52
2019-04-16T23:39:24.075Z,97319.03
2019-04-16T23:41:52.794Z,97328.06
2019-04-16T23:44:38.205Z,97321.48
2019-04-16T23:47:10.213Z,97325.64
2019-04-16T23:49:40.337Z,97322.45
2019-04-16T23:52:13.376Z,97323.84
2019-04-16T23:54:44.116Z,97324.69
2019-04-16T23:57:15.261Z,97333.29
